sensor_id;sensor_type;location;lat;lon;timestamp;P1;durP1;ratioP1;P2;durP2;ratioP2
25153;SDS011;47555;51.038;6.280;2023-06-26T00:02:04;9.80;;;7.50;;
25153;SDS011;47555;51.038;6.280;2023-06-26T00:04:30;8.70;;;7.65;;
25153;SDS011;47555;51.038;6.280;2023-06-26T00:06:56;8.30;;;7.25;;
25153;SDS011;47555;51.038;6.280;2023-06-26T00:09:22;9.15;;;7.70;;
25153;SDS011;47555;51.038;6.280;2023-06-26T00:11:48;8.20;;;7.40;;
25153;SDS011;47555;51.038;6.280;2023-06-26T00:14:14;8.35;;;7.50;;
25153;SDS011;47555;51.038;6.280;2023-06-26T00:16:40;8.18;;;6.68;;
25153;SDS011;47555;51.038;6.280;2023-06-26T00:19:07;8.30;;;7.15;;
25153;SDS011;47555;51.038;6.280;2023-06-26T00:21:33;8.38;;;7.30;;
25153;SDS011;47555;51.038;6.280;2023-06-26T00:23:59;8.70;;;7.32;;
25153;SDS011;47555;51.038;6.280;2023-06-26T00:26:25;9.43;;;7.28;;
25153;SDS011;47555;51.038;6.280;2023-06-26T00:28:51;9.35;;;7.57;;
25153;SDS011;47555;51.038;6.280;2023-06-26T00:31:17;8.60;;;7.15;;
25153;SDS011;47555;51.038;6.280;2023-06-26T00:33:43;8.15;;;7.35;;
25153;SDS011;47555;51.038;6.280;2023-06-26T00:36:09;8.82;;;6.85;;
25153;SDS011;47555;51.038;6.280;2023-06-26T00:38:35;8.05;;;7.10;;
25153;SDS011;47555;51.038;6.280;2023-06-26T00:41:01;7.32;;;6.45;;
25153;SDS011;47555;51.038;6.280;2023-06-26T00:43:27;8.27;;;6.50;;
25153;SDS011;47555;51.038;6.280;2023-06-26T00:45:52;7.88;;;7.07;;
25153;SDS011;47555;51.038;6.280;2023-06-26T00:48:18;8.45;;;6.63;;
25153;SDS011;47555;51.038;6.280;2023-06-26T00:50:45;7.68;;;6.90;;
25153;SDS011;47555;51.038;6.280;2023-06-26T00:53:11;9.45;;;6.78;;
25153;SDS011;47555;51.038;6.280;2023-06-26T00:55:37;8.30;;;6.53;;
25153;SDS011;47555;51.038;6.280;2023-06-26T00:58:03;7.95;;;6.43;;
25153;SDS011;47555;51.038;6.280;2023-06-26T01:00:29;7.65;;;6.50;;
25153;SDS011;47555;51.038;6.280;2023-06-26T01:02:55;7.15;;;6.45;;
25153;SDS011;47555;51.038;6.280;2023-06-26T01:05:24;7.43;;;6.45;;
25153;SDS011;47555;51.038;6.280;2023-06-26T01:07:50;8.50;;;7.00;;
25153;SDS011;47555;51.038;6.280;2023-06-26T01:10:16;7.53;;;6.72;;
25153;SDS011;47555;51.038;6.280;2023-06-26T01:12:42;8.80;;;6.63;;
25153;SDS011;47555;51.038;6.280;2023-06-26T01:15:08;8.43;;;6.78;;
25153;SDS011;47555;51.038;6.280;2023-06-26T01:17:36;8.50;;;6.45;;
25153;SDS011;47555;51.038;6.280;2023-06-26T01:20:03;9.20;;;6.82;;
25153;SDS011;47555;51.038;6.280;2023-06-26T01:23:18;8.52;;;6.70;;
25153;SDS011;47555;51.038;6.280;2023-06-26T01:25:41;10.25;;;7.35;;
25153;SDS011;47555;51.038;6.280;2023-06-26T01:28:09;11.85;;;7.63;;
25153;SDS011;47555;51.038;6.280;2023-06-26T01:30:38;9.23;;;6.97;;
25153;SDS011;47555;51.038;6.280;2023-06-26T01:33:05;8.00;;;7.10;;
25153;SDS011;47555;51.038;6.280;2023-06-26T01:35:31;8.40;;;7.15;;
25153;SDS011;47555;51.038;6.280;2023-06-26T01:38:14;8.65;;;7.45;;
25153;SDS011;47555;51.038;6.280;2023-06-26T01:40:41;9.20;;;7.50;;
25153;SDS011;47555;51.038;6.280;2023-06-26T01:43:10;9.32;;;7.45;;
25153;SDS011;47555;51.038;6.280;2023-06-26T01:45:36;7.97;;;6.90;;
25153;SDS011;47555;51.038;6.280;2023-06-26T01:48:02;8.23;;;7.15;;
25153;SDS011;47555;51.038;6.280;2023-06-26T01:50:30;7.63;;;6.80;;
25153;SDS011;47555;51.038;6.280;2023-06-26T01:55:28;9.25;;;7.82;;
25153;SDS011;47555;51.038;6.280;2023-06-26T01:57:58;8.02;;;6.70;;
25153;SDS011;47555;51.038;6.280;2023-06-26T02:00:25;8.98;;;7.18;;
25153;SDS011;47555;51.038;6.280;2023-06-26T02:02:51;8.00;;;7.20;;
25153;SDS011;47555;51.038;6.280;2023-06-26T02:05:17;8.60;;;7.07;;
25153;SDS011;47555;51.038;6.280;2023-06-26T02:07:43;9.27;;;7.28;;
25153;SDS011;47555;51.038;6.280;2023-06-26T02:10:09;9.57;;;7.30;;
25153;SDS011;47555;51.038;6.280;2023-06-26T02:12:35;8.80;;;7.18;;
25153;SDS011;47555;51.038;6.280;2023-06-26T02:15:02;10.98;;;7.32;;
25153;SDS011;47555;51.038;6.280;2023-06-26T02:17:28;8.02;;;7.22;;
25153;SDS011;47555;51.038;6.280;2023-06-26T02:19:54;8.30;;;6.80;;
25153;SDS011;47555;51.038;6.280;2023-06-26T02:22:20;8.70;;;7.40;;
25153;SDS011;47555;51.038;6.280;2023-06-26T02:24:46;8.65;;;7.18;;
25153;SDS011;47555;51.038;6.280;2023-06-26T02:27:12;9.70;;;7.05;;
25153;SDS011;47555;51.038;6.280;2023-06-26T02:29:38;10.73;;;7.40;;
25153;SDS011;47555;51.038;6.280;2023-06-26T02:32:04;10.07;;;7.15;;
25153;SDS011;47555;51.038;6.280;2023-06-26T02:34:30;9.25;;;6.95;;
25153;SDS011;47555;51.038;6.280;2023-06-26T02:36:56;8.57;;;7.28;;
25153;SDS011;47555;51.038;6.280;2023-06-26T02:39:23;12.20;;;7.75;;
25153;SDS011;47555;51.038;6.280;2023-06-26T02:41:49;10.27;;;7.22;;
25153;SDS011;47555;51.038;6.280;2023-06-26T02:44:15;8.77;;;6.90;;
25153;SDS011;47555;51.038;6.280;2023-06-26T02:46:41;7.93;;;7.07;;
25153;SDS011;47555;51.038;6.280;2023-06-26T02:49:07;10.07;;;7.00;;
25153;SDS011;47555;51.038;6.280;2023-06-26T02:51:33;8.98;;;7.53;;
25153;SDS011;47555;51.038;6.280;2023-06-26T02:53:59;9.57;;;6.95;;
25153;SDS011;47555;51.038;6.280;2023-06-26T02:56:26;9.25;;;7.65;;
25153;SDS011;47555;51.038;6.280;2023-06-26T02:58:55;9.52;;;7.15;;
25153;SDS011;47555;51.038;6.280;2023-06-26T03:01:21;9.52;;;6.65;;
25153;SDS011;47555;51.038;6.280;2023-06-26T03:03:47;9.38;;;7.40;;
25153;SDS011;47555;51.038;6.280;2023-06-26T03:06:13;9.38;;;6.63;;
25153;SDS011;47555;51.038;6.280;2023-06-26T03:08:40;10.23;;;6.85;;
25153;SDS011;47555;51.038;6.280;2023-06-26T03:11:06;8.05;;;6.88;;
25153;SDS011;47555;51.038;6.280;2023-06-26T03:13:33;9.73;;;7.22;;
25153;SDS011;47555;51.038;6.280;2023-06-26T03:15:59;11.15;;;7.15;;
25153;SDS011;47555;51.038;6.280;2023-06-26T03:18:25;8.07;;;6.57;;
25153;SDS011;47555;51.038;6.280;2023-06-26T03:20:51;11.18;;;6.30;;
25153;SDS011;47555;51.038;6.280;2023-06-26T03:23:19;9.43;;;6.38;;
25153;SDS011;47555;51.038;6.280;2023-06-26T03:25:45;10.07;;;7.25;;
25153;SDS011;47555;51.038;6.280;2023-06-26T03:28:11;7.85;;;6.18;;
25153;SDS011;47555;51.038;6.280;2023-06-26T03:30:37;9.30;;;6.40;;
25153;SDS011;47555;51.038;6.280;2023-06-26T03:33:03;8.02;;;6.30;;
25153;SDS011;47555;51.038;6.280;2023-06-26T03:35:29;9.57;;;6.47;;
25153;SDS011;47555;51.038;6.280;2023-06-26T03:37:55;9.38;;;6.20;;
25153;SDS011;47555;51.038;6.280;2023-06-26T03:40:24;9.27;;;6.72;;
25153;SDS011;47555;51.038;6.280;2023-06-26T03:42:50;9.35;;;6.45;;
25153;SDS011;47555;51.038;6.280;2023-06-26T03:45:16;8.18;;;6.50;;
25153;SDS011;47555;51.038;6.280;2023-06-26T03:47:42;8.98;;;6.00;;
25153;SDS011;47555;51.038;6.280;2023-06-26T03:50:08;9.75;;;6.95;;
25153;SDS011;47555;51.038;6.280;2023-06-26T03:52:34;8.43;;;6.35;;
25153;SDS011;47555;51.038;6.280;2023-06-26T03:55:00;9.35;;;6.57;;
25153;SDS011;47555;51.038;6.280;2023-06-26T03:57:27;11.02;;;6.45;;
25153;SDS011;47555;51.038;6.280;2023-06-26T03:59:53;9.23;;;6.70;;
25153;SDS011;47555;51.038;6.280;2023-06-26T04:02:19;7.57;;;6.32;;
25153;SDS011;47555;51.038;6.280;2023-06-26T04:04:45;7.32;;;5.85;;
25153;SDS011;47555;51.038;6.280;2023-06-26T04:07:11;9.13;;;6.20;;
25153;SDS011;47555;51.038;6.280;2023-06-26T04:09:37;7.20;;;5.70;;
25153;SDS011;47555;51.038;6.280;2023-06-26T04:12:03;9.48;;;6.38;;
25153;SDS011;47555;51.038;6.280;2023-06-26T04:14:29;7.78;;;6.53;;
25153;SDS011;47555;51.038;6.280;2023-06-26T04:16:55;7.30;;;5.82;;
25153;SDS011;47555;51.038;6.280;2023-06-26T04:19:22;7.95;;;5.88;;
25153;SDS011;47555;51.038;6.280;2023-06-26T04:21:48;7.60;;;5.88;;
25153;SDS011;47555;51.038;6.280;2023-06-26T04:24:14;8.57;;;6.05;;
25153;SDS011;47555;51.038;6.280;2023-06-26T04:26:40;8.82;;;5.75;;
25153;SDS011;47555;51.038;6.280;2023-06-26T04:29:06;7.45;;;5.03;;
25153;SDS011;47555;51.038;6.280;2023-06-26T04:31:32;6.90;;;4.78;;
25153;SDS011;47555;51.038;6.280;2023-06-26T04:33:59;8.48;;;4.68;;
25153;SDS011;47555;51.038;6.280;2023-06-26T04:36:25;11.18;;;5.45;;
25153;SDS011;47555;51.038;6.280;2023-06-26T04:38:53;8.93;;;4.80;;
25153;SDS011;47555;51.038;6.280;2023-06-26T04:41:19;6.85;;;4.60;;
25153;SDS011;47555;51.038;6.280;2023-06-26T04:43:45;8.48;;;4.97;;
25153;SDS011;47555;51.038;6.280;2023-06-26T04:46:11;8.70;;;4.78;;
25153;SDS011;47555;51.038;6.280;2023-06-26T04:48:37;6.13;;;4.40;;
25153;SDS011;47555;51.038;6.280;2023-06-26T04:51:03;5.93;;;4.53;;
25153;SDS011;47555;51.038;6.280;2023-06-26T04:53:29;7.22;;;4.43;;
25153;SDS011;47555;51.038;6.280;2023-06-26T04:55:54;8.80;;;4.60;;
25153;SDS011;47555;51.038;6.280;2023-06-26T04:58:21;7.97;;;4.68;;
25153;SDS011;47555;51.038;6.280;2023-06-26T05:00:46;8.63;;;4.68;;
25153;SDS011;47555;51.038;6.280;2023-06-26T05:03:13;7.88;;;4.63;;
25153;SDS011;47555;51.038;6.280;2023-06-26T05:05:40;7.97;;;4.63;;
25153;SDS011;47555;51.038;6.280;2023-06-26T05:08:21;6.78;;;4.50;;
25153;SDS011;47555;51.038;6.280;2023-06-26T05:10:47;7.53;;;4.70;;
25153;SDS011;47555;51.038;6.280;2023-06-26T05:13:13;6.78;;;4.60;;
25153;SDS011;47555;51.038;6.280;2023-06-26T05:15:42;6.07;;;4.68;;
25153;SDS011;47555;51.038;6.280;2023-06-26T05:18:08;8.10;;;4.45;;
25153;SDS011;47555;51.038;6.280;2023-06-26T05:20:34;9.23;;;4.53;;
25153;SDS011;47555;51.038;6.280;2023-06-26T05:23:04;7.85;;;4.78;;
25153;SDS011;47555;51.038;6.280;2023-06-26T05:25:30;9.30;;;5.20;;
25153;SDS011;47555;51.038;6.280;2023-06-26T05:28:00;7.35;;;5.03;;
25153;SDS011;47555;51.038;6.280;2023-06-26T05:30:26;6.38;;;4.10;;
25153;SDS011;47555;51.038;6.280;2023-06-26T05:32:53;6.63;;;4.13;;
25153;SDS011;47555;51.038;6.280;2023-06-26T05:35:22;9.00;;;4.40;;
25153;SDS011;47555;51.038;6.280;2023-06-26T05:37:48;7.03;;;4.50;;
25153;SDS011;47555;51.038;6.280;2023-06-26T05:40:15;5.75;;;4.18;;
25153;SDS011;47555;51.038;6.280;2023-06-26T05:42:41;5.97;;;3.90;;
25153;SDS011;47555;51.038;6.280;2023-06-26T05:45:07;5.75;;;3.95;;
25153;SDS011;47555;51.038;6.280;2023-06-26T05:47:33;7.78;;;4.38;;
25153;SDS011;47555;51.038;6.280;2023-06-26T05:50:00;7.75;;;4.20;;
25153;SDS011;47555;51.038;6.280;2023-06-26T05:52:26;6.75;;;4.43;;
25153;SDS011;47555;51.038;6.280;2023-06-26T05:54:52;11.90;;;4.63;;
25153;SDS011;47555;51.038;6.280;2023-06-26T05:57:19;7.82;;;4.22;;
25153;SDS011;47555;51.038;6.280;2023-06-26T05:59:46;7.05;;;4.03;;
25153;SDS011;47555;51.038;6.280;2023-06-26T06:02:12;8.02;;;4.25;;
25153;SDS011;47555;51.038;6.280;2023-06-26T06:04:38;8.90;;;4.50;;
25153;SDS011;47555;51.038;6.280;2023-06-26T06:07:04;6.13;;;4.07;;
25153;SDS011;47555;51.038;6.280;2023-06-26T06:09:30;7.30;;;4.30;;
25153;SDS011;47555;51.038;6.280;2023-06-26T06:11:56;8.05;;;3.90;;
25153;SDS011;47555;51.038;6.280;2023-06-26T06:14:22;9.43;;;3.90;;
25153;SDS011;47555;51.038;6.280;2023-06-26T06:16:48;9.40;;;4.07;;
25153;SDS011;47555;51.038;6.280;2023-06-26T06:19:14;10.75;;;4.70;;
25153;SDS011;47555;51.038;6.280;2023-06-26T06:21:40;8.90;;;4.32;;
25153;SDS011;47555;51.038;6.280;2023-06-26T06:24:08;8.32;;;4.00;;
25153;SDS011;47555;51.038;6.280;2023-06-26T06:26:34;7.97;;;4.15;;
25153;SDS011;47555;51.038;6.280;2023-06-26T06:29:00;8.75;;;4.10;;
25153;SDS011;47555;51.038;6.280;2023-06-26T06:31:26;9.68;;;4.43;;
25153;SDS011;47555;51.038;6.280;2023-06-26T06:33:53;8.43;;;4.40;;
25153;SDS011;47555;51.038;6.280;2023-06-26T06:36:19;11.07;;;4.13;;
25153;SDS011;47555;51.038;6.280;2023-06-26T06:38:45;7.70;;;4.55;;
25153;SDS011;47555;51.038;6.280;2023-06-26T06:41:11;7.20;;;4.03;;
25153;SDS011;47555;51.038;6.280;2023-06-26T06:43:37;9.18;;;4.30;;
25153;SDS011;47555;51.038;6.280;2023-06-26T06:46:04;9.13;;;4.55;;
25153;SDS011;47555;51.038;6.280;2023-06-26T06:48:30;6.18;;;4.20;;
25153;SDS011;47555;51.038;6.280;2023-06-26T06:50:56;9.85;;;4.60;;
25153;SDS011;47555;51.038;6.280;2023-06-26T06:53:22;6.63;;;4.63;;
25153;SDS011;47555;51.038;6.280;2023-06-26T06:55:48;7.50;;;4.65;;
25153;SDS011;47555;51.038;6.280;2023-06-26T06:58:15;10.07;;;4.55;;
25153;SDS011;47555;51.038;6.280;2023-06-26T07:00:42;9.65;;;4.38;;
25153;SDS011;47555;51.038;6.280;2023-06-26T07:03:08;10.75;;;4.43;;
25153;SDS011;47555;51.038;6.280;2023-06-26T07:05:35;10.00;;;4.18;;
25153;SDS011;47555;51.038;6.280;2023-06-26T07:08:01;10.68;;;4.68;;
25153;SDS011;47555;51.038;6.280;2023-06-26T07:10:27;9.85;;;4.43;;
25153;SDS011;47555;51.038;6.280;2023-06-26T07:12:53;11.23;;;4.50;;
25153;SDS011;47555;51.038;6.280;2023-06-26T07:15:19;9.10;;;4.20;;
25153;SDS011;47555;51.038;6.280;2023-06-26T07:17:45;10.70;;;3.80;;
25153;SDS011;47555;51.038;6.280;2023-06-26T07:20:11;14.25;;;4.20;;
25153;SDS011;47555;51.038;6.280;2023-06-26T07:22:40;6.85;;;3.58;;
25153;SDS011;47555;51.038;6.280;2023-06-26T07:25:06;9.75;;;4.40;;
25153;SDS011;47555;51.038;6.280;2023-06-26T07:27:38;8.30;;;3.85;;
25153;SDS011;47555;51.038;6.280;2023-06-26T07:30:04;8.65;;;3.95;;
25153;SDS011;47555;51.038;6.280;2023-06-26T07:32:30;11.93;;;4.32;;
25153;SDS011;47555;51.038;6.280;2023-06-26T07:34:56;8.75;;;3.97;;
25153;SDS011;47555;51.038;6.280;2023-06-26T07:37:22;8.20;;;3.83;;
25153;SDS011;47555;51.038;6.280;2023-06-26T07:39:48;12.65;;;4.65;;
25153;SDS011;47555;51.038;6.280;2023-06-26T07:42:14;9.93;;;4.88;;
25153;SDS011;47555;51.038;6.280;2023-06-26T07:44:43;10.48;;;4.25;;
25153;SDS011;47555;51.038;6.280;2023-06-26T07:47:10;7.38;;;3.88;;
25153;SDS011;47555;51.038;6.280;2023-06-26T07:49:36;10.88;;;4.50;;
25153;SDS011;47555;51.038;6.280;2023-06-26T07:52:03;11.30;;;5.40;;
25153;SDS011;47555;51.038;6.280;2023-06-26T07:54:29;9.43;;;4.75;;
25153;SDS011;47555;51.038;6.280;2023-06-26T07:56:58;11.57;;;4.32;;
25153;SDS011;47555;51.038;6.280;2023-06-26T07:59:25;5.75;;;4.00;;
25153;SDS011;47555;51.038;6.280;2023-06-26T08:01:52;9.30;;;4.75;;
25153;SDS011;47555;51.038;6.280;2023-06-26T08:04:19;11.45;;;4.40;;
25153;SDS011;47555;51.038;6.280;2023-06-26T08:06:45;9.63;;;4.70;;
25153;SDS011;47555;51.038;6.280;2023-06-26T08:09:11;13.27;;;4.65;;
25153;SDS011;47555;51.038;6.280;2023-06-26T08:11:37;10.10;;;4.47;;
25153;SDS011;47555;51.038;6.280;2023-06-26T08:14:04;10.32;;;5.07;;
25153;SDS011;47555;51.038;6.280;2023-06-26T08:16:30;10.13;;;5.20;;
25153;SDS011;47555;51.038;6.280;2023-06-26T08:18:56;11.90;;;4.90;;
25153;SDS011;47555;51.038;6.280;2023-06-26T08:21:22;9.48;;;5.25;;
25153;SDS011;47555;51.038;6.280;2023-06-26T08:23:47;9.18;;;4.63;;
25153;SDS011;47555;51.038;6.280;2023-06-26T08:26:13;10.43;;;5.28;;
25153;SDS011;47555;51.038;6.280;2023-06-26T08:28:39;8.20;;;4.78;;
25153;SDS011;47555;51.038;6.280;2023-06-26T08:31:05;7.80;;;4.45;;
25153;SDS011;47555;51.038;6.280;2023-06-26T08:33:31;11.90;;;4.90;;
25153;SDS011;47555;51.038;6.280;2023-06-26T08:35:57;9.95;;;4.32;;
25153;SDS011;47555;51.038;6.280;2023-06-26T08:38:23;9.27;;;5.00;;
25153;SDS011;47555;51.038;6.280;2023-06-26T08:40:49;8.20;;;4.45;;
25153;SDS011;47555;51.038;6.280;2023-06-26T08:43:15;9.65;;;5.03;;
25153;SDS011;47555;51.038;6.280;2023-06-26T08:45:41;11.20;;;4.80;;
25153;SDS011;47555;51.038;6.280;2023-06-26T08:48:08;7.75;;;4.68;;
25153;SDS011;47555;51.038;6.280;2023-06-26T08:50:34;9.25;;;5.03;;
25153;SDS011;47555;51.038;6.280;2023-06-26T08:55:47;7.70;;;4.85;;
25153;SDS011;47555;51.038;6.280;2023-06-26T08:58:14;12.20;;;4.75;;
25153;SDS011;47555;51.038;6.280;2023-06-26T09:00:41;12.00;;;5.47;;
25153;SDS011;47555;51.038;6.280;2023-06-26T09:03:07;6.50;;;4.88;;
25153;SDS011;47555;51.038;6.280;2023-06-26T09:05:33;12.13;;;5.60;;
25153;SDS011;47555;51.038;6.280;2023-06-26T09:08:00;11.40;;;5.32;;
25153;SDS011;47555;51.038;6.280;2023-06-26T09:10:26;9.68;;;5.53;;
25153;SDS011;47555;51.038;6.280;2023-06-26T09:12:54;6.97;;;5.20;;
25153;SDS011;47555;51.038;6.280;2023-06-26T09:15:21;8.70;;;5.22;;
25153;SDS011;47555;51.038;6.280;2023-06-26T09:17:48;8.05;;;5.00;;
25153;SDS011;47555;51.038;6.280;2023-06-26T09:20:14;7.15;;;5.22;;
25153;SDS011;47555;51.038;6.280;2023-06-26T09:22:41;7.65;;;4.72;;
25153;SDS011;47555;51.038;6.280;2023-06-26T09:25:07;5.53;;;4.05;;
25153;SDS011;47555;51.038;6.280;2023-06-26T09:27:36;5.35;;;4.10;;
25153;SDS011;47555;51.038;6.280;2023-06-26T09:30:03;11.93;;;4.57;;
25153;SDS011;47555;51.038;6.280;2023-06-26T09:32:29;5.95;;;4.30;;
25153;SDS011;47555;51.038;6.280;2023-06-26T09:34:55;6.57;;;4.72;;
25153;SDS011;47555;51.038;6.280;2023-06-26T09:37:21;11.90;;;5.00;;
25153;SDS011;47555;51.038;6.280;2023-06-26T09:39:47;8.98;;;4.43;;
25153;SDS011;47555;51.038;6.280;2023-06-26T09:42:14;7.78;;;4.13;;
25153;SDS011;47555;51.038;6.280;2023-06-26T09:44:44;8.77;;;3.97;;
25153;SDS011;47555;51.038;6.280;2023-06-26T09:47:10;6.20;;;3.80;;
25153;SDS011;47555;51.038;6.280;2023-06-26T09:49:36;10.25;;;4.15;;
25153;SDS011;47555;51.038;6.280;2023-06-26T09:52:06;6.95;;;3.95;;
25153;SDS011;47555;51.038;6.280;2023-06-26T09:54:32;7.90;;;4.53;;
25153;SDS011;47555;51.038;6.280;2023-06-26T09:57:11;7.03;;;4.10;;
25153;SDS011;47555;51.038;6.280;2023-06-26T09:59:38;6.40;;;4.05;;
25153;SDS011;47555;51.038;6.280;2023-06-26T10:02:04;8.43;;;3.88;;
25153;SDS011;47555;51.038;6.280;2023-06-26T10:04:30;4.85;;;3.72;;
25153;SDS011;47555;51.038;6.280;2023-06-26T10:06:57;5.13;;;3.50;;
25153;SDS011;47555;51.038;6.280;2023-06-26T10:09:23;8.48;;;3.65;;
25153;SDS011;47555;51.038;6.280;2023-06-26T10:11:52;7.72;;;3.95;;
25153;SDS011;47555;51.038;6.280;2023-06-26T10:14:20;6.40;;;3.75;;
25153;SDS011;47555;51.038;6.280;2023-06-26T10:16:50;7.47;;;3.20;;
25153;SDS011;47555;51.038;6.280;2023-06-26T10:19:16;8.40;;;3.58;;
25153;SDS011;47555;51.038;6.280;2023-06-26T10:21:53;4.22;;;3.10;;
25153;SDS011;47555;51.038;6.280;2023-06-26T10:24:20;4.53;;;2.67;;
25153;SDS011;47555;51.038;6.280;2023-06-26T10:26:46;4.50;;;2.10;;
25153;SDS011;47555;51.038;6.280;2023-06-26T10:29:15;10.32;;;3.08;;
25153;SDS011;47555;51.038;6.280;2023-06-26T10:31:42;6.43;;;2.60;;
25153;SDS011;47555;51.038;6.280;2023-06-26T10:34:10;5.15;;;2.47;;
25153;SDS011;47555;51.038;6.280;2023-06-26T10:36:36;9.10;;;2.95;;
25153;SDS011;47555;51.038;6.280;2023-06-26T10:39:05;3.55;;;2.72;;
25153;SDS011;47555;51.038;6.280;2023-06-26T10:41:38;3.65;;;2.50;;
25153;SDS011;47555;51.038;6.280;2023-06-26T10:44:11;6.93;;;2.60;;
25153;SDS011;47555;51.038;6.280;2023-06-26T10:49:28;5.35;;;2.67;;
25153;SDS011;47555;51.038;6.280;2023-06-26T10:51:54;5.22;;;2.65;;
25153;SDS011;47555;51.038;6.280;2023-06-26T10:54:23;5.43;;;2.80;;
25153;SDS011;47555;51.038;6.280;2023-06-26T10:56:54;3.00;;;2.40;;
25153;SDS011;47555;51.038;6.280;2023-06-26T10:59:24;5.75;;;2.20;;
25153;SDS011;47555;51.038;6.280;2023-06-26T11:01:54;4.95;;;2.30;;
25153;SDS011;47555;51.038;6.280;2023-06-26T11:04:39;3.63;;;2.10;;
25153;SDS011;47555;51.038;6.280;2023-06-26T11:07:19;4.53;;;2.42;;
25153;SDS011;47555;51.038;6.280;2023-06-26T11:15:10;3.05;;;1.73;;
25153;SDS011;47555;51.038;6.280;2023-06-26T11:17:36;4.43;;;2.40;;
25153;SDS011;47555;51.038;6.280;2023-06-26T11:20:04;4.03;;;2.22;;
25153;SDS011;47555;51.038;6.280;2023-06-26T11:22:31;6.43;;;2.22;;
25153;SDS011;47555;51.038;6.280;2023-06-26T11:25:00;5.25;;;2.00;;
25153;SDS011;47555;51.038;6.280;2023-06-26T11:27:40;7.38;;;1.88;;
25153;SDS011;47555;51.038;6.280;2023-06-26T11:30:07;5.60;;;1.67;;
25153;SDS011;47555;51.038;6.280;2023-06-26T11:32:34;4.90;;;2.33;;
25153;SDS011;47555;51.038;6.280;2023-06-26T11:35:00;5.32;;;1.67;;
25153;SDS011;47555;51.038;6.280;2023-06-26T11:37:26;3.70;;;1.50;;
25153;SDS011;47555;51.038;6.280;2023-06-26T11:39:52;5.38;;;1.38;;
25153;SDS011;47555;51.038;6.280;2023-06-26T11:42:19;2.63;;;1.42;;
25153;SDS011;47555;51.038;6.280;2023-06-26T11:44:45;4.60;;;1.63;;
25153;SDS011;47555;51.038;6.280;2023-06-26T11:47:18;2.83;;;1.65;;
25153;SDS011;47555;51.038;6.280;2023-06-26T11:49:45;2.85;;;1.42;;
25153;SDS011;47555;51.038;6.280;2023-06-26T11:52:11;3.58;;;1.70;;
25153;SDS011;47555;51.038;6.280;2023-06-26T11:54:37;4.47;;;1.40;;
25153;SDS011;47555;51.038;6.280;2023-06-26T11:57:04;2.55;;;1.48;;
25153;SDS011;47555;51.038;6.280;2023-06-26T11:59:34;2.75;;;1.60;;
25153;SDS011;47555;51.038;6.280;2023-06-26T12:02:00;1.75;;;1.33;;
25153;SDS011;47555;51.038;6.280;2023-06-26T12:04:28;3.58;;;1.33;;
25153;SDS011;47555;51.038;6.280;2023-06-26T12:06:54;3.60;;;1.20;;
25153;SDS011;47555;51.038;6.280;2023-06-26T12:09:22;3.88;;;1.75;;
25153;SDS011;47555;51.038;6.280;2023-06-26T12:11:48;2.08;;;1.20;;
25153;SDS011;47555;51.038;6.280;2023-06-26T12:14:17;3.17;;;1.10;;
25153;SDS011;47555;51.038;6.280;2023-06-26T12:16:45;3.03;;;1.25;;
25153;SDS011;47555;51.038;6.280;2023-06-26T12:19:11;6.53;;;1.65;;
25153;SDS011;47555;51.038;6.280;2023-06-26T12:24:06;5.00;;;1.50;;
25153;SDS011;47555;51.038;6.280;2023-06-26T12:26:32;2.78;;;1.35;;
25153;SDS011;47555;51.038;6.280;2023-06-26T12:29:08;2.00;;;1.40;;
25153;SDS011;47555;51.038;6.280;2023-06-26T12:31:36;1.80;;;1.38;;
25153;SDS011;47555;51.038;6.280;2023-06-26T12:34:08;2.83;;;1.20;;
25153;SDS011;47555;51.038;6.280;2023-06-26T12:36:41;3.75;;;1.30;;
25153;SDS011;47555;51.038;6.280;2023-06-26T12:39:09;3.60;;;1.42;;
25153;SDS011;47555;51.038;6.280;2023-06-26T12:41:43;5.57;;;1.30;;
25153;SDS011;47555;51.038;6.280;2023-06-26T12:44:16;3.80;;;1.40;;
25153;SDS011;47555;51.038;6.280;2023-06-26T12:46:42;2.78;;;1.10;;
25153;SDS011;47555;51.038;6.280;2023-06-26T12:49:08;2.70;;;1.23;;
25153;SDS011;47555;51.038;6.280;2023-06-26T12:51:34;2.90;;;1.10;;
25153;SDS011;47555;51.038;6.280;2023-06-26T12:54:00;4.07;;;1.33;;
25153;SDS011;47555;51.038;6.280;2023-06-26T12:56:26;1.88;;;1.10;;
25153;SDS011;47555;51.038;6.280;2023-06-26T12:58:52;4.35;;;1.20;;
25153;SDS011;47555;51.038;6.280;2023-06-26T13:01:18;2.03;;;1.10;;
25153;SDS011;47555;51.038;6.280;2023-06-26T13:03:44;3.75;;;1.08;;
25153;SDS011;47555;51.038;6.280;2023-06-26T13:06:10;5.38;;;1.40;;
25153;SDS011;47555;51.038;6.280;2023-06-26T13:08:39;2.85;;;1.30;;
25153;SDS011;47555;51.038;6.280;2023-06-26T13:11:05;2.38;;;1.30;;
25153;SDS011;47555;51.038;6.280;2023-06-26T13:13:31;2.25;;;1.60;;
25153;SDS011;47555;51.038;6.280;2023-06-26T13:15:57;3.55;;;1.48;;
25153;SDS011;47555;51.038;6.280;2023-06-26T13:18:23;2.33;;;1.58;;
25153;SDS011;47555;51.038;6.280;2023-06-26T13:20:49;2.38;;;1.40;;
25153;SDS011;47555;51.038;6.280;2023-06-26T13:23:15;3.15;;;1.40;;
25153;SDS011;47555;51.038;6.280;2023-06-26T13:25:41;3.88;;;1.50;;
25153;SDS011;47555;51.038;6.280;2023-06-26T13:28:07;1.55;;;1.45;;
25153;SDS011;47555;51.038;6.280;2023-06-26T13:30:34;5.45;;;1.50;;
25153;SDS011;47555;51.038;6.280;2023-06-26T13:33:00;2.83;;;1.52;;
25153;SDS011;47555;51.038;6.280;2023-06-26T13:35:26;5.60;;;1.80;;
25153;SDS011;47555;51.038;6.280;2023-06-26T13:37:52;4.00;;;1.40;;
25153;SDS011;47555;51.038;6.280;2023-06-26T13:40:17;5.63;;;1.75;;
25153;SDS011;47555;51.038;6.280;2023-06-26T13:42:43;5.88;;;1.55;;
25153;SDS011;47555;51.038;6.280;2023-06-26T13:45:09;2.53;;;1.58;;
25153;SDS011;47555;51.038;6.280;2023-06-26T13:47:36;6.00;;;1.83;;
25153;SDS011;47555;51.038;6.280;2023-06-26T13:50:06;2.55;;;1.88;;
25153;SDS011;47555;51.038;6.280;2023-06-26T13:52:32;2.95;;;1.75;;
25153;SDS011;47555;51.038;6.280;2023-06-26T13:54:58;3.15;;;1.58;;
25153;SDS011;47555;51.038;6.280;2023-06-26T13:57:24;8.20;;;1.70;;
25153;SDS011;47555;51.038;6.280;2023-06-26T13:59:52;4.43;;;1.38;;
25153;SDS011;47555;51.038;6.280;2023-06-26T14:02:18;3.72;;;1.35;;
25153;SDS011;47555;51.038;6.280;2023-06-26T14:04:44;3.47;;;1.38;;
25153;SDS011;47555;51.038;6.280;2023-06-26T14:07:10;1.95;;;1.25;;
25153;SDS011;47555;51.038;6.280;2023-06-26T14:09:36;2.83;;;1.33;;
25153;SDS011;47555;51.038;6.280;2023-06-26T14:12:02;3.25;;;1.50;;
25153;SDS011;47555;51.038;6.280;2023-06-26T14:14:28;3.30;;;1.55;;
25153;SDS011;47555;51.038;6.280;2023-06-26T14:16:54;3.90;;;1.45;;
25153;SDS011;47555;51.038;6.280;2023-06-26T14:19:20;5.45;;;1.65;;
25153;SDS011;47555;51.038;6.280;2023-06-26T14:21:45;3.03;;;1.30;;
25153;SDS011;47555;51.038;6.280;2023-06-26T14:24:11;4.55;;;1.10;;
25153;SDS011;47555;51.038;6.280;2023-06-26T14:26:37;3.83;;;1.80;;
25153;SDS011;47555;51.038;6.280;2023-06-26T14:29:03;4.63;;;1.50;;
25153;SDS011;47555;51.038;6.280;2023-06-26T14:31:29;4.07;;;1.20;;
25153;SDS011;47555;51.038;6.280;2023-06-26T14:33:55;2.42;;;1.30;;
25153;SDS011;47555;51.038;6.280;2023-06-26T14:36:21;3.42;;;1.35;;
25153;SDS011;47555;51.038;6.280;2023-06-26T14:38:47;3.15;;;1.23;;
25153;SDS011;47555;51.038;6.280;2023-06-26T14:41:13;2.05;;;1.30;;
25153;SDS011;47555;51.038;6.280;2023-06-26T14:43:39;4.15;;;1.40;;
25153;SDS011;47555;51.038;6.280;2023-06-26T14:46:05;1.65;;;1.13;;
25153;SDS011;47555;51.038;6.280;2023-06-26T14:48:31;4.75;;;1.73;;
25153;SDS011;47555;51.038;6.280;2023-06-26T14:50:57;4.43;;;1.25;;
25153;SDS011;47555;51.038;6.280;2023-06-26T14:53:25;3.53;;;1.42;;
25153;SDS011;47555;51.038;6.280;2023-06-26T14:55:51;1.98;;;1.15;;
25153;SDS011;47555;51.038;6.280;2023-06-26T14:58:17;4.90;;;1.40;;
25153;SDS011;47555;51.038;6.280;2023-06-26T15:00:43;2.20;;;1.13;;